Time;durP1;ratioP1;P1;durP2;ratioP2;P2;SDS_P1;SDS_P2;PMS_P1;PMS_P2;Temp;Humidity;BMP_temperature;BMP_pressure;BME280_temperature;BME280_humidity;BME280_pressure;Samples;Min_cycle;Max_cycle;Signal;HPM_P1;HPM_P2
2021/08/29 00:00:30;;;;;;;0.00;0.00;;;;;;;20.07;46.52;102267.81;2611427;31;20037;-67
2021/08/29 00:02:57;;;;;;;0.00;0.00;;;;;;;20.03;46.89;102271.50;2609689;36;20095;-67
2021/08/29 00:05:24;;;;;;;0.00;0.00;;;;;;;20.03;48.23;102278.59;2607984;36;20043;-67
2021/08/29 00:07:52;;;;;;;0.00;0.00;;;;;;;19.94;46.96;102264.75;2610218;31;20031;-67
2021/08/29 00:10:19;;;;;;;0.00;0.00;;;;;;;19.96;48.02;102281.44;2611119;31;20039;-67
2021/08/29 00:12:46;;;;;;;0.00;0.00;;;;;;;19.91;48.47;102280.75;2610077;31;20587;-67
2021/08/29 00:15:13;;;;;;;0.00;0.00;;;;;;;19.89;47.34;102274.66;2610489;31;20035;-67
2021/08/29 00:17:40;;;;;;;0.00;0.00;;;;;;;19.85;47.18;102273.03;2607351;36;20073;-67
2021/08/29 00:20:08;;;;;;;0.00;0.00;;;;;;;19.82;47.19;102278.47;2608588;36;20159;-67
2021/08/29 00:22:35;;;;;;;0.00;0.00;;;;;;;19.75;48.49;102276.94;2608358;31;20031;-67
2021/08/29 00:25:03;;;;;;;0.00;0.00;;;;;;;19.73;48.72;102284.09;2609610;31;20038;-67
2021/08/29 00:27:30;;;;;;;0.00;0.00;;;;;;;19.59;49.24;102259.81;2608993;31;20034;-67
2021/08/29 00:29:57;;;;;;;0.00;0.00;;;;;;;19.64;48.24;102279.97;2610662;36;20566;-67
2021/08/29 00:32:25;;;;;;;0.00;0.00;;;;;;;19.59;49.33;102286.31;2608711;31;20648;-67
2021/08/29 00:34:52;;;;;;;0.00;0.00;;;;;;;19.52;49.61;102277.72;2606937;36;20679;-67
2021/08/29 00:37:19;;;;;;;0.00;0.00;;;;;;;19.49;50.44;102276.97;2609743;31;20035;-67
2021/08/29 00:39:47;;;;;;;0.00;0.00;;;;;;;19.38;49.94;102266.75;2607089;31;20041;-67
2021/08/29 00:42:14;;;;;;;0.00;0.00;;;;;;;19.43;49.18;102268.31;2605382;31;20034;-67
2021/08/29 00:44:43;;;;;;;0.00;0.00;;;;;;;19.39;48.52;102263.16;2610779;31;20069;-67
2021/08/29 00:47:11;;;;;;;0.00;0.00;;;;;;;19.35;48.37;102259.75;2609979;36;21284;-67
2021/08/29 00:49:40;;;;;;;0.00;0.00;;;;;;;19.35;49.45;102261.53;2611115;31;20031;-67
2021/08/29 00:52:09;;;;;;;0.00;0.00;;;;;;;19.28;49.83;102252.09;2607517;36;20042;-67
2021/08/29 00:54:40;;;;;;;0.00;0.00;;;;;;;19.31;49.55;102271.38;2608755;31;20031;-67
2021/08/29 00:57:09;;;;;;;0.00;0.00;;;;;;;19.26;49.21;102265.38;2608409;36;20054;-67
2021/08/29 00:59:42;;;;;;;0.00;0.00;;;;;;;19.16;49.21;102256.88;2609685;31;20030;-67
2021/08/29 01:02:21;;;;;;;0.00;0.00;;;;;;;19.14;48.90;102257.84;2607540;36;20457;-67
2021/08/29 01:05:01;;;;;;;0.00;0.00;;;;;;;19.11;47.50;102258.81;2610269;31;20061;-67
2021/08/29 01:07:38;;;;;;;0.00;0.00;;;;;;;19.08;48.41;102258.03;2608823;36;20110;-67
2021/08/29 01:10:12;;;;;;;0.00;0.00;;;;;;;19.02;48.48;102252.97;2608947;31;20050;-67
2021/08/29 01:12:55;;;;;;;0.00;0.00;;;;;;;18.92;48.63;102237.38;2610864;31;20130;-67
2021/08/29 01:15:27;;;;;;;0.00;0.00;;;;;;;18.93;50.54;102246.19;2608996;31;20065;-67
2021/08/29 01:17:57;;;;;;;0.00;0.00;;;;;;;18.93;48.95;102252.34;2609185;31;20030;-67
2021/08/29 01:20:49;;;;;;;0.00;0.00;;;;;;;18.90;47.24;102252.44;2608665;31;20050;-67
2021/08/29 01:23:20;;;;;;;0.00;0.00;;;;;;;18.81;49.50;102244.81;2571393;36;2004523;-67
2021/08/29 01:25:55;;;;;;;0.00;0.00;;;;;;;18.79;48.71;102246.63;2607499;31;20569;-67
2021/08/29 01:28:32;;;;;;;0.00;0.00;;;;;;;18.69;49.01;102250.47;2608838;36;20069;-66
2021/08/29 01:30:59;;;;;;;0.00;0.00;;;;;;;18.65;50.72;102256.75;2607567;31;20038;-67
2021/08/29 01:33:26;;;;;;;0.00;0.00;;;;;;;18.61;49.98;102257.78;2607956;31;20558;-67
2021/08/29 01:36:03;;;;;;;0.00;0.00;;;;;;;18.57;52.33;102254.34;2608478;31;20133;-67
2021/08/29 01:38:31;;;;;;;0.00;0.00;;;;;;;18.51;51.34;102245.75;2607649;36;20073;-67
2021/08/29 01:40:59;;;;;;;0.00;0.00;;;;;;;18.46;50.52;102253.84;2607494;31;20042;-67
2021/08/29 01:43:26;;;;;;;0.00;0.00;;;;;;;18.34;51.94;102248.91;2607577;36;20780;-67
2021/08/29 01:45:54;;;;;;;0.00;0.00;;;;;;;18.34;51.87;102251.53;2608522;36;20149;-67
2021/08/29 01:48:23;;;;;;;0.00;0.00;;;;;;;18.25;51.42;102254.47;2605832;36;20030;-67
2021/08/29 01:50:58;;;;;;;0.00;0.00;;;;;;;18.18;51.23;102263.50;2608815;31;20562;-67
2021/08/29 01:53:48;;;;;;;0.00;0.00;;;;;;;18.05;51.43;102247.16;2608029;31;20557;-67
2021/08/29 01:57:16;;;;;;;0.00;0.00;;;;;;;18.06;49.29;102264.72;2608829;36;20449;-67
2021/08/29 01:59:53;;;;;;;0.00;0.00;;;;;;;17.96;51.96;102265.91;2569401;31;2004386;-67
2021/08/29 02:02:20;;;;;;;0.00;0.00;;;;;;;17.92;52.67;102261.63;2605301;36;20878;-67
2021/08/29 02:04:48;;;;;;;0.00;0.00;;;;;;;17.92;52.25;102261.63;2609584;31;21138;-67
2021/08/29 02:07:36;;;;;;;0.00;0.00;;;;;;;17.88;49.97;102253.75;2609129;31;20090;-67
2021/08/29 02:10:30;;;;;;;0.00;0.00;;;;;;;17.87;51.72;102259.97;2571132;31;2004382;-67
2021/08/29 02:13:09;;;;;;;0.00;0.00;;;;;;;17.88;51.06;102255.53;2608311;36;20038;-67
2021/08/29 02:15:43;;;;;;;0.00;0.00;;;;;;;17.87;52.17;102265.25;2610357;31;20030;-67
2021/08/29 02:18:12;;;;;;;0.00;0.00;;;;;;;17.87;52.77;102254.69;2609773;31;20034;-67
2021/08/29 02:20:48;;;;;;;0.00;0.00;;;;;;;17.87;53.20;102256.47;2607745;31;20030;-67
2021/08/29 02:23:17;;;;;;;0.00;0.00;;;;;;;17.81;53.31;102257.50;2609814;31;20537;-67
2021/08/29 02:25:48;;;;;;;0.00;0.00;;;;;;;17.82;51.71;102248.66;2608386;36;20556;-67
2021/08/29 02:28:17;;;;;;;0.00;0.00;;;;;;;17.80;52.26;102253.13;2606279;31;20034;-68
2021/08/29 02:30:45;;;;;;;0.00;0.00;;;;;;;17.78;52.71;102254.06;2607531;36;20026;-68
2021/08/29 02:33:16;;;;;;;0.00;0.00;;;;;;;17.77;53.05;102252.34;2609273;31;20069;-68
2021/08/29 02:35:46;;;;;;;0.00;0.00;;;;;;;17.78;53.86;102260.22;2606072;31;20454;-67
2021/08/29 02:38:17;;;;;;;0.00;0.00;;;;;;;17.72;53.23;102252.44;2607540;36;20035;-68
2021/08/29 02:40:44;;;;;;;0.00;0.00;;;;;;;17.68;53.75;102258.69;2608839;31;20035;-67
2021/08/29 02:43:14;;;;;;;0.00;0.00;;;;;;;17.62;51.63;102251.81;2605620;31;20035;-68
2021/08/29 02:45:44;;;;;;;0.00;0.00;;;;;;;17.60;51.94;102266.00;2607837;31;20034;-68
2021/08/29 02:48:16;;;;;;;0.00;0.00;;;;;;;17.57;53.39;102261.63;2609052;31;20715;-68
2021/08/29 02:50:47;;;;;;;0.00;0.00;;;;;;;17.52;52.20;102252.97;2606517;36;20045;-68
2021/08/29 02:53:18;;;;;;;0.00;0.00;;;;;;;17.42;54.32;102250.63;2605866;31;20446;-68
2021/08/29 02:55:54;;;;;;;0.00;0.00;;;;;;;17.51;55.13;102255.66;2608656;31;20041;-68
2021/08/29 02:58:23;;;;;;;0.00;0.00;;;;;;;17.51;53.72;102258.31;2607271;31;20039;-68
2021/08/29 03:01:00;;;;;;;0.00;0.00;;;;;;;17.56;55.76;102269.63;2607910;36;20042;-68
2021/08/29 03:03:48;;;;;;;0.00;0.00;;;;;;;17.58;54.36;102267.78;2610488;36;20183;-68
2021/08/29 03:06:15;;;;;;;0.00;0.00;;;;;;;17.64;56.07;102273.78;2606754;36;20617;-67
2021/08/29 03:08:43;;;;;;;0.00;0.00;;;;;;;17.69;55.62;102272.78;2608324;31;20637;-68
2021/08/29 03:11:10;;;;;;;0.00;0.00;;;;;;;17.76;55.80;102271.75;2607475;31;20030;-68
2021/08/29 03:13:38;;;;;;;0.00;0.00;;;;;;;17.75;55.67;102254.16;2608266;36;20030;-68
2021/08/29 03:16:06;;;;;;;0.00;0.00;;;;;;;17.77;58.42;102242.63;2610370;36;20442;-68
2021/08/29 03:18:46;;;;;;;0.00;0.00;;;;;;;17.96;56.80;102260.63;2609423;36;20093;-68
2021/08/29 03:21:32;;;;;;;0.00;0.00;;;;;;;18.03;59.63;102260.38;2608561;31;20042;-68
2021/08/29 03:23:59;;;;;;;0.00;0.00;;;;;;;18.08;59.20;102260.25;2610643;31;20072;-68
2021/08/29 03:26:27;;;;;;;;;;;;;;;18.18;53.11;102269.66;2607966;36;20042;-68
2021/08/29 03:28:59;;;;;;;0.00;0.00;;;;;;;18.13;57.73;102245.13;2610156;36;19954;-68
2021/08/29 03:31:27;;;;;;;;;;;;;;;18.28;52.66;102255.25;2607884;36;20600;-68
2021/08/29 03:33:58;;;;;;;0.00;0.00;;;;;;;18.32;58.54;102258.66;2610624;31;20443;-68
2021/08/29 03:36:31;;;;;;;0.00;0.00;;;;;;;18.34;57.90;102257.69;2609483;31;20038;-68
2021/08/29 03:39:03;;;;;;;0.00;0.00;;;;;;;18.39;56.76;102257.56;2609026;31;20142;-68
2021/08/29 03:41:30;;;;;;;0.00;0.00;;;;;;;18.35;57.67;102250.66;2611647;36;20573;-68
2021/08/29 03:43:59;;;;;;;0.00;0.00;;;;;;;18.41;58.74;102261.03;2607812;36;20038;-68
2021/08/29 03:46:28;;;;;;;0.00;0.00;;;;;;;18.37;61.69;102239.09;2610241;31;20038;-67
2021/08/29 03:49:01;;;;;;;0.00;0.00;;;;;;;18.49;58.68;102259.00;2608332;36;20125;-67
2021/08/29 03:51:29;;;;;;;0.00;0.00;;;;;;;18.54;62.04;102258.88;2610560;31;20039;-67
2021/08/29 03:53:56;;;;;;;0.00;0.00;;;;;;;18.47;60.28;102239.69;2610844;36;20041;-67
2021/08/29 03:56:24;;;;;;;0.00;0.00;;;;;;;18.57;58.96;102245.56;2609328;31;20061;-67
2021/08/29 03:58:52;;;;;;;0.00;0.00;;;;;;;18.67;58.75;102252.28;2609018;31;20574;-68
2021/08/29 04:01:19;;;;;;;0.00;0.00;;;;;;;18.70;60.70;102265.44;2609221;31;20102;-67
2021/08/29 04:03:47;;;;;;;0.00;0.00;;;;;;;18.62;59.16;102243.63;2607846;31;20039;-67
2021/08/29 04:06:24;;;;;;;0.00;0.00;;;;;;;18.79;60.22;102261.63;2610912;31;20464;-67
2021/08/29 04:08:55;;;;;;;0.00;0.00;;;;;;;18.84;60.40;102265.00;2608433;31;20034;-67
2021/08/29 04:11:28;;;;;;;0.00;0.00;;;;;;;18.83;58.82;102261.50;2611392;31;20037;-67
2021/08/29 04:13:56;;;;;;;0.00;0.00;;;;;;;18.87;58.54;102260.50;2610727;31;20042;-67
2021/08/29 04:16:29;;;;;;;0.00;0.00;;;;;;;18.89;59.57;102266.59;2610352;31;20125;-67
2021/08/29 04:19:05;;;;;;;0.00;0.00;;;;;;;18.90;59.58;102260.38;2612871;31;20051;-67
2021/08/29 04:21:33;;;;;;;0.00;0.00;;;;;;;18.96;61.87;102263.72;2611833;31;20589;-67
2021/08/29 04:24:01;;;;;;;0.00;0.00;;;;;;;18.98;60.82;102262.78;2609619;31;20090;-67
2021/08/29 04:26:44;;;;;;;0.00;0.00;;;;;;;19.02;59.02;102268.84;2610260;36;20038;-68
2021/08/29 04:29:11;;;;;;;;;;;;;;;19.07;55.28;102262.47;2610877;36;20763;-67
2021/08/29 04:31:46;;;;;;;0.00;0.00;;;;;;;19.07;57.51;102262.47;2609870;31;19953;-67
2021/08/29 04:34:15;;;;;;;0.00;0.00;;;;;;;19.06;58.80;102265.16;2609404;31;20031;-67
2021/08/29 04:36:45;;;;;;;0.00;0.00;;;;;;;18.98;58.29;102246.91;2612423;31;20832;-68
2021/08/29 04:39:24;;;;;;;0.00;0.00;;;;;;;19.09;58.08;102259.78;2611153;31;20130;-68
2021/08/29 04:41:52;;;;;;;0.00;0.00;;;;;;;19.07;58.78;102257.19;2607161;31;20035;-68
2021/08/29 04:44:20;;;;;;;0.00;0.00;;;;;;;19.10;59.32;102257.06;2612310;31;20676;-68
2021/08/29 04:46:48;;;;;;;0.00;0.00;;;;;;;19.08;59.09;102250.09;2610650;31;20046;-68
2021/08/29 04:49:15;;;;;;;0.00;0.00;;;;;;;19.14;58.43;102260.47;2608826;36;20901;-67
2021/08/29 04:51:44;;;;;;;0.00;0.00;;;;;;;19.15;58.41;102255.13;2611031;31;20034;-67
2021/08/29 04:54:12;;;;;;;0.00;0.00;;;;;;;19.13;59.08;102250.81;2611970;31;20060;-67
2021/08/29 04:56:40;;;;;;;0.00;0.00;;;;;;;19.21;60.80;102264.69;2610137;31;21016;-67
2021/08/29 04:59:10;;;;;;;0.00;0.00;;;;;;;19.23;60.85;102257.53;2610599;31;20038;-68
2021/08/29 05:01:41;;;;;;;0.00;0.00;;;;;;;19.25;59.12;102258.34;2609185;36;20038;-68
2021/08/29 05:04:08;;;;;;;;;;;;;;;19.34;55.54;102260.66;2609836;31;20035;-67
2021/08/29 05:06:35;;;;;;;0.00;0.00;;;;;;;19.32;58.17;102251.94;2610688;31;19946;-68
2021/08/29 05:09:06;;;;;;;0.00;0.00;;;;;;;19.34;59.76;102259.81;2610159;36;20033;-67
2021/08/29 05:11:34;;;;;;;0.00;0.00;;;;;;;19.35;60.61;102250.94;2610122;31;20034;-67
2021/08/29 05:14:01;;;;;;;0.00;0.00;;;;;;;19.34;59.87;102254.50;2612414;36;20038;-68
2021/08/29 05:16:28;;;;;;;;;;;;;;;19.39;55.67;102253.44;2609329;31;20035;-68
2021/08/29 05:18:55;;;;;;;0.00;0.00;;;;;;;19.35;59.71;102256.22;2610527;31;20574;-67
2021/08/29 05:21:22;;;;;;;0.00;0.00;;;;;;;19.27;60.45;102242.41;2608071;31;20038;-68
2021/08/29 05:24:10;;;;;;;0.00;0.00;;;;;;;19.30;59.13;102253.75;2611208;36;20456;-67
2021/08/29 05:26:48;;;;;;;0.00;0.00;;;;;;;19.28;58.89;102255.59;2609903;31;20030;-67
2021/08/29 05:29:15;;;;;;;0.00;0.00;;;;;;;19.26;58.80;102245.94;2611143;31;20042;-68
2021/08/29 05:31:44;;;;;;;0.00;0.00;;;;;;;19.21;59.06;102247.91;2609130;31;20038;-69
2021/08/29 05:34:14;;;;;;;0.00;0.00;;;;;;;19.26;60.84;102252.13;2611166;31;20068;-68
2021/08/29 05:36:42;;;;;;;0.00;0.00;;;;;;;19.26;59.11;102249.50;2609800;36;20121;-68
2021/08/29 05:39:12;;;;;;;0.00;0.00;;;;;;;19.27;59.15;102259.16;2610388;31;20034;-68
2021/08/29 05:41:39;;;;;;;0.00;0.00;;;;;;;19.21;58.76;102248.78;2609779;31;20041;-68
2021/08/29 05:44:18;;;;;;;0.00;0.00;;;;;;;19.29;59.54;102259.09;2612889;31;20486;-68
2021/08/29 05:46:45;;;;;;;0.00;0.00;;;;;;;19.23;58.81;102248.72;2611520;36;20026;-67
2021/08/29 05:49:13;;;;;;;0.00;0.00;;;;;;;19.26;58.95;102253.91;2609283;31;20777;-68
2021/08/29 05:51:40;;;;;;;0.00;0.00;;;;;;;19.36;59.11;102264.16;2610263;36;20060;-67
2021/08/29 05:54:07;;;;;;;0.10;0.10;;;;;;;19.38;59.63;102264.94;2611194;31;20034;-68
2021/08/29 05:56:34;;;;;;;0.00;0.00;;;;;;;19.39;59.13;102258.72;2609163;36;20430;-68
2021/08/29 05:59:03;;;;;;;0.00;0.00;;;;;;;19.42;59.58;102263.06;2608412;31;20059;-67
2021/08/29 06:01:30;;;;;;;0.00;0.00;;;;;;;19.49;60.67;102271.66;2609821;31;20053;-68
2021/08/29 06:03:57;;;;;;;0.00;0.00;;;;;;;19.48;58.94;102268.16;2610454;36;20736;-67
2021/08/29 06:06:40;;;;;;;0.00;0.00;;;;;;;19.54;61.89;102272.38;2612074;31;20080;-68
2021/08/29 06:09:08;;;;;;;;;;;;;;;19.63;56.19;102277.38;2607661;31;20031;-67
2021/08/29 06:11:35;;;;;;;0.00;0.00;;;;;;;19.58;59.01;102269.56;2610307;36;20458;-68
2021/08/29 06:14:04;;;;;;;0.00;0.00;;;;;;;19.62;59.11;102270.34;2609000;31;20085;-68
2021/08/29 06:16:32;;;;;;;0.00;0.00;;;;;;;19.62;60.40;102276.50;2611412;31;20928;-67
2021/08/29 06:19:01;;;;;;;0.00;0.00;;;;;;;19.63;59.45;102272.06;2607128;31;20908;-68
2021/08/29 06:21:29;;;;;;;;;;;;;;;19.67;56.00;102268.41;2607856;36;20041;-68
2021/08/29 06:23:56;;;;;;;0.00;0.00;;;;;;;19.62;60.27;102267.72;2611264;31;19954;-68
2021/08/29 06:26:42;;;;;;;0.00;0.00;;;;;;;19.61;59.48;102268.59;2612252;36;20051;-67
2021/08/29 06:29:35;;;;;;;0.00;0.00;;;;;;;19.59;60.15;102265.13;2571401;31;2004445;-67
2021/08/29 06:32:40;;;;;;;0.00;0.00;;;;;;;19.59;61.26;102271.31;2571673;31;2004357;-68
2021/08/29 06:35:11;;;;;;;0.00;0.00;;;;;;;19.57;60.83;102269.63;2608870;31;20038;-67
2021/08/29 06:38:00;;;;;;;0.00;0.00;;;;;;;19.57;60.79;102273.13;2606024;31;20034;-68
2021/08/29 06:40:28;;;;;;;0.00;0.00;;;;;;;19.62;60.17;102276.50;2609268;31;20432;-68
2021/08/29 06:42:55;;;;;;;0.00;0.00;;;;;;;19.62;59.92;102280.94;2610897;31;20034;-68
2021/08/29 06:45:48;;;;;;;0.00;0.00;;;;;;;19.63;61.73;102282.69;2572870;31;2004489;-68
2021/08/29 06:48:33;;;;;;;0.00;0.00;;;;;;;19.63;61.76;102278.25;2610094;31;20721;-67
2021/08/29 06:51:19;;;;;;;0.00;0.00;;;;;;;19.64;62.15;102279.09;2608443;31;20141;-67
2021/08/29 06:54:05;;;;;;;0.00;0.00;;;;;;;19.62;61.60;102279.16;2611804;31;20157;-67
2021/08/29 06:56:55;;;;;;;0.00;0.00;;;;;;;19.62;60.53;102280.94;2608499;31;20031;-68
2021/08/29 06:59:26;;;;;;;0.00;0.00;;;;;;;19.60;61.49;102277.47;2609383;31;20065;-67
2021/08/29 07:01:56;;;;;;;0.00;0.00;;;;;;;19.60;62.57;102290.72;2607518;36;20168;-67
2021/08/29 07:04:23;;;;;;;0.00;0.00;;;;;;;19.60;62.21;102282.78;2613049;31;20630;-68
2021/08/29 07:06:53;;;;;;;0.00;0.00;;;;;;;19.61;60.68;102284.50;2606928;36;20070;-68
2021/08/29 07:09:40;;;;;;;0.00;0.00;;;;;;;19.62;62.72;102286.25;2611401;31;20602;-68
2021/08/29 07:12:10;;;;;;;0.00;0.00;;;;;;;19.65;61.15;102286.13;2608117;31;21476;-67
2021/08/29 07:14:56;;;;;;;0.00;0.00;;;;;;;19.66;61.37;102282.56;2612880;31;20041;-68
2021/08/29 07:17:23;;;;;;;0.00;0.00;;;;;;;19.64;61.60;102274.66;2609202;36;21931;-68
2021/08/29 07:19:51;;;;;;;0.00;0.00;;;;;;;19.68;60.93;102280.72;2609803;31;20030;-68
2021/08/29 07:22:54;;;;;;;0.00;0.00;;;;;;;19.72;60.59;102277.06;2575363;31;2004434;-67
2021/08/29 07:25:39;;;;;;;0.00;0.00;;;;;;;19.75;60.71;102287.53;2609596;36;20059;-68
2021/08/29 07:28:25;;;;;;;0.00;0.00;;;;;;;19.79;62.71;102283.84;2606548;36;20138;-68
2021/08/29 07:31:24;;;;;;;0.00;0.00;;;;;;;19.85;62.42;102280.13;2572082;31;2004527;-68
2021/08/29 07:33:52;;;;;;;0.00;0.00;;;;;;;19.80;60.97;102269.69;2611257;31;20059;-68
2021/08/29 07:36:30;;;;;;;0.00;0.00;;;;;;;19.93;62.80;102280.72;2610067;31;20525;-68
2021/08/29 07:39:05;;;;;;;0.00;0.00;;;;;;;19.96;62.30;102281.44;2611627;31;20057;-68
2021/08/29 07:41:32;;;;;;;0.00;0.00;;;;;;;19.99;61.97;102279.63;2607192;31;20435;-68
2021/08/29 07:43:59;;;;;;;0.00;0.00;;;;;;;19.95;62.50;102271.75;2610185;31;20035;-67
2021/08/29 07:46:28;;;;;;;0.00;0.00;;;;;;;20.05;61.73;102279.38;2605274;31;20065;-68
2021/08/29 07:48:55;;;;;;;0.00;0.00;;;;;;;20.06;61.15;102281.97;2608570;36;20868;-68
2021/08/29 07:51:22;;;;;;;0.00;0.00;;;;;;;20.09;61.79;102281.00;2604034;31;20034;-68
2021/08/29 07:54:09;;;;;;;0.00;0.00;;;;;;;20.12;62.01;102275.56;2571292;31;2004196;-67
2021/08/29 07:57:12;;;;;;;0.00;0.00;;;;;;;20.16;61.72;102277.19;2570028;31;2004628;-68
2021/08/29 07:59:39;;;;;;;0.00;0.00;;;;;;;20.16;61.96;102272.75;2607062;31;20128;-68
2021/08/29 08:02:07;;;;;;;0.00;0.00;;;;;;;20.22;61.84;102271.66;2606382;31;20031;-67
2021/08/29 08:04:57;;;;;;;0.00;0.00;;;;;;;20.25;61.04;102276.84;2611789;31;20034;-68
2021/08/29 08:07:50;;;;;;;0.00;0.00;;;;;;;20.29;61.35;102275.81;2573211;31;2004455;-67
2021/08/29 08:10:43;;;;;;;0.00;0.00;;;;;;;20.33;62.10;102284.53;2572938;31;2005484;-68
2021/08/29 08:13:21;;;;;;;0.00;0.00;;;;;;;20.35;60.88;102285.31;2609600;31;20063;-68
2021/08/29 08:15:48;;;;;;;0.00;0.00;;;;;;;20.37;60.85;102286.13;2608170;31;20034;-68
2021/08/29 08:18:15;;;;;;;0.00;0.00;;;;;;;20.33;61.78;102263.31;2610665;31;20058;-68
2021/08/29 08:20:43;;;;;;;0.00;0.00;;;;;;;20.40;61.09;102276.25;2611726;31;20030;-68
2021/08/29 08:23:31;;;;;;;;;;;;;;;20.50;57.92;102282.09;2607862;31;20561;-68
2021/08/29 08:26:18;;;;;;;0.00;0.00;;;;;;;20.40;61.04;102276.25;2610731;36;19950;-67
2021/08/29 08:29:03;;;;;;;0.00;0.00;;;;;;;20.46;60.10;102281.34;2609126;31;20580;-68
2021/08/29 08:31:50;;;;;;;0.00;0.00;;;;;;;20.45;61.24;102279.59;2607988;31;20469;-68
2021/08/29 08:34:35;;;;;;;0.00;0.00;;;;;;;20.47;61.70;102283.06;2610776;31;20133;-67
2021/08/29 08:37:05;;;;;;;0.00;0.00;;;;;;;20.50;61.29;102286.56;2609775;36;20038;-68
2021/08/29 08:39:51;;;;;;;0.00;0.00;;;;;;;20.52;61.00;102280.25;2612329;31;20937;-68
2021/08/29 08:42:26;;;;;;;0.00;0.00;;;;;;;20.54;60.69;102282.88;2611035;31;20129;-68
2021/08/29 08:45:11;;;;;;;0.00;0.00;;;;;;;20.56;60.41;102291.63;2611148;31;20602;-67
2021/08/29 08:48:01;;;;;;;0.00;0.00;;;;;;;20.53;59.55;102270.50;2615188;31;20073;-67
2021/08/29 08:50:50;;;;;;;0.00;0.00;;;;;;;20.62;59.88;102288.72;2608660;31;20055;-68
2021/08/29 08:53:39;;;;;;;0.00;0.00;;;;;;;20.63;59.47;102283.38;2609020;31;20036;-68
2021/08/29 08:56:38;;;;;;;0.00;0.00;;;;;;;20.62;59.30;102292.22;2572584;31;2004318;-68
2021/08/29 08:59:24;;;;;;;0.00;0.00;;;;;;;20.62;58.77;102286.06;2610120;36;20061;-67
2021/08/29 09:02:29;;;;;;;0.00;0.00;;;;;;;20.62;59.18;102283.41;2573689;31;2004212;-68
2021/08/29 09:05:16;;;;;;;0.00;0.00;;;;;;;20.63;59.28;102279.81;2611465;31;20646;-68
2021/08/29 09:07:45;;;;;;;0.00;0.00;;;;;;;20.64;59.48;102281.56;2611500;31;20026;-68
2021/08/29 09:10:12;;;;;;;0.00;0.00;;;;;;;20.61;59.11;102279.03;2611492;31;20990;-68
2021/08/29 09:13:15;;;;;;;0.00;0.00;;;;;;;20.73;57.57;102292.69;2609485;36;20046;-68
2021/08/29 09:15:42;;;;;;;0.00;0.00;;;;;;;20.69;59.32;102299.03;2574730;31;2004273;-68
2021/08/29 09:18:14;;;;;;;0.00;0.00;;;;;;;20.73;58.53;102299.75;2611377;31;20134;-68
2021/08/29 09:20:41;;;;;;;0.00;0.00;;;;;;;20.70;58.81;102294.59;2608297;31;20510;-67
2021/08/29 09:23:15;;;;;;;0.00;0.00;;;;;;;20.72;58.79;102298.03;2610328;36;20061;-68
2021/08/29 09:25:45;;;;;;;0.00;0.00;;;;;;;20.75;58.75;102299.72;2610797;31;20041;-67
2021/08/29 09:28:39;;;;;;;0.00;0.00;;;;;;;20.77;58.42;102297.84;2574894;31;2004483;-68
2021/08/29 09:31:08;;;;;;;0.00;0.00;;;;;;;20.76;58.21;102297.00;2607321;36;20037;-67
2021/08/29 09:33:37;;;;;;;0.00;0.00;;;;;;;20.79;57.52;102304.00;2608581;36;20035;-68
2021/08/29 09:36:11;;;;;;;0.00;0.00;;;;;;;20.83;57.07;102305.56;2612137;31;20033;-68
2021/08/29 09:39:20;;;;;;;0.00;0.00;;;;;;;20.87;56.58;102302.75;2612866;31;20034;-68
2021/08/29 09:42:06;;;;;;;0.00;0.00;;;;;;;20.84;57.42;102300.22;2574446;31;2004399;-68
2021/08/29 09:44:42;;;;;;;0.00;0.00;;;;;;;20.86;57.45;102306.31;2612027;31;20517;-68
2021/08/29 09:47:29;;;;;;;0.00;0.00;;;;;;;20.90;57.36;102297.31;2609783;31;20044;-68
2021/08/29 09:50:34;;;;;;;0.00;0.00;;;;;;;20.96;57.36;102307.69;2573544;31;2004676;-67
2021/08/29 09:53:20;;;;;;;0.00;0.00;;;;;;;20.93;57.39;102299.84;2607353;36;20069;-68
2021/08/29 09:56:18;;;;;;;0.00;0.00;;;;;;;21.02;55.60;102303.03;2609918;31;20034;-68
2021/08/29 09:59:04;;;;;;;0.00;0.00;;;;;;;21.01;56.88;102303.97;2577520;31;2004407;-68
2021/08/29 10:01:54;;;;;;;0.00;0.00;;;;;;;21.13;56.39;102312.28;2609816;31;20561;-68
2021/08/29 10:04:30;;;;;;;0.00;0.00;;;;;;;21.12;56.27;102318.53;2610580;31;20038;-68
2021/08/29 10:07:14;;;;;;;0.00;0.00;;;;;;;21.21;55.82;102322.63;2612116;31;21348;-68
2021/08/29 10:09:42;;;;;;;0.00;0.00;;;;;;;21.18;56.08;102306.78;2610194;36;20039;-67
2021/08/29 10:12:19;;;;;;;0.00;0.00;;;;;;;21.23;55.72;102315.44;2609833;31;20035;-68
2021/08/29 10:14:48;;;;;;;0.00;0.00;;;;;;;21.28;55.13;102318.75;2610047;31;20134;-68
2021/08/29 10:17:34;;;;;;;0.00;0.00;;;;;;;21.24;54.90;102302.09;2612014;31;20056;-68
2021/08/29 10:20:20;;;;;;;0.00;0.00;;;;;;;21.34;55.21;102313.25;2612429;31;20057;-68
2021/08/29 10:23:09;;;;;;;0.00;0.00;;;;;;;21.37;55.27;102310.44;2609751;31;21299;-68
2021/08/29 10:25:38;;;;;;;0.00;0.00;;;;;;;21.44;54.99;102311.94;2613473;31;20140;-68
2021/08/29 10:28:28;;;;;;;0.00;0.00;;;;;;;21.52;55.25;102308.94;2609880;31;20038;-68
2021/08/29 10:31:04;;;;;;;0.00;0.00;;;;;;;21.60;54.57;102303.28;2610060;36;20038;-68
2021/08/29 10:33:57;;;;;;;0.00;0.00;;;;;;;21.64;54.46;102304.88;2570391;36;2005689;-68
2021/08/29 10:36:24;;;;;;;0.00;0.00;;;;;;;21.76;54.58;102299.88;2612526;31;20412;-68
2021/08/29 10:39:04;;;;;;;0.00;0.00;;;;;;;21.86;53.71;102303.00;2610257;31;20641;-68
2021/08/29 10:41:54;;;;;;;0.00;0.00;;;;;;;21.98;54.04;102299.78;2609972;31;20033;-68
2021/08/29 10:44:37;;;;;;;0.00;0.00;;;;;;;22.05;53.95;102291.50;2610817;31;20038;-68
2021/08/29 10:47:38;;;;;;;0.00;0.00;;;;;;;22.25;53.21;102291.50;2573269;31;2004217;-68
2021/08/29 10:50:26;;;;;;;0.00;0.00;;;;;;;22.30;52.97;102285.97;2608395;32;20059;-68
